sensor_id;sensor_type;location;lat;lon;timestamp;temperature;humidity
4293;DHT22;2160;51.172;6.808;2023-11-21T05:01:15;12.50;99.90
4293;DHT22;2160;51.172;6.808;2023-11-21T05:03:43;12.50;99.90
4293;DHT22;2160;51.172;6.808;2023-11-21T05:06:10;12.50;99.90
4293;DHT22;2160;51.172;6.808;2023-11-21T05:08:37;12.60;99.90
4293;DHT22;2160;51.172;6.808;2023-11-21T05:11:04;12.60;99.90
4293;DHT22;2160;51.172;6.808;2023-11-21T05:13:34;12.70;99.90
4293;DHT22;2160;51.172;6.808;2023-11-21T05:16:01;12.70;99.90
4293;DHT22;2160;51.172;6.808;2023-11-21T05:18:31;12.60;99.90
4293;DHT22;2160;51.172;6.808;2023-11-21T05:20:58;12.90;99.90
4293;DHT22;2160;51.172;6.808;2023-11-21T05:23:26;12.70;99.90
4293;DHT22;2160;51.172;6.808;2023-11-21T05:25:53;12.90;99.90
4293;DHT22;2160;51.172;6.808;2023-11-21T05:28:22;12.80;99.90
4293;DHT22;2160;51.172;6.808;2023-11-21T05:30:49;12.80;99.90
4293;DHT22;2160;51.172;6.808;2023-11-21T05:33:16;12.70;99.90
4293;DHT22;2160;51.172;6.808;2023-11-21T05:35:44;12.50;99.90
4293;DHT22;2160;51.172;6.808;2023-11-21T05:38:12;12.50;99.90
4293;DHT22;2160;51.172;6.808;2023-11-21T05:40:38;12.50;99.90
4293;DHT22;2160;51.172;6.808;2023-11-21T05:43:07;12.60;99.90
4293;DHT22;2160;51.172;6.808;2023-11-21T05:45:34;12.40;99.90
4293;DHT22;2160;51.172;6.808;2023-11-21T05:48:01;12.40;99.90
4293;DHT22;2160;51.172;6.808;2023-11-21T05:50:28;12.40;99.90
4293;DHT22;2160;51.172;6.808;2023-11-21T05:52:58;12.40;99.90
4293;DHT22;2160;51.172;6.808;2023-11-21T05:55:26;12.40;99.90
4293;DHT22;2160;51.172;6.808;2023-11-21T05:57:53;12.30;99.90
4293;DHT22;2160;51.172;6.808;2023-11-21T06:00:20;12.40;99.90
4293;DHT22;2160;51.172;6.808;2023-11-21T06:02:47;12.40;99.90
4293;DHT22;2160;51.172;6.808;2023-11-21T06:05:17;12.30;99.90
4293;DHT22;2160;51.172;6.808;2023-11-21T06:07:45;12.40;99.90
4293;DHT22;2160;51.172;6.808;2023-11-21T06:10:13;12.50;99.90
4293;DHT22;2160;51.172;6.808;2023-11-21T06:12:41;12.40;99.90
4293;DHT22;2160;51.172;6.808;2023-11-21T06:15:09;12.40;99.90
4293;DHT22;2160;51.172;6.808;2023-11-21T06:17:39;12.40;99.90
4293;DHT22;2160;51.172;6.808;2023-11-21T06:20:08;12.40;99.90
4293;DHT22;2160;51.172;6.808;2023-11-21T06:22:36;12.40;99.90
4293;DHT22;2160;51.172;6.808;2023-11-21T06:25:03;12.40;99.90
4293;DHT22;2160;51.172;6.808;2023-11-21T06:27:32;12.30;99.90
4293;DHT22;2160;51.172;6.808;2023-11-21T06:30:00;12.40;99.90
4293;DHT22;2160;51.172;6.808;2023-11-21T06:32:27;12.30;99.90
4293;DHT22;2160;51.172;6.808;2023-11-21T06:34:55;12.40;99.90
4293;DHT22;2160;51.172;6.808;2023-11-21T06:37:25;12.40;99.90
4293;DHT22;2160;51.172;6.808;2023-11-21T06:39:52;12.40;99.90
4293;DHT22;2160;51.172;6.808;2023-11-21T06:42:20;12.40;99.90
4293;DHT22;2160;51.172;6.808;2023-11-21T06:44:48;12.50;99.90
4293;DHT22;2160;51.172;6.808;2023-11-21T06:47:17;12.50;99.90
4293;DHT22;2160;51.172;6.808;2023-11-21T06:49:46;12.50;99.90
4293;DHT22;2160;51.172;6.808;2023-11-21T06:52:13;12.50;99.90
4293;DHT22;2160;51.172;6.808;2023-11-21T06:54:40;12.40;99.90
4293;DHT22;2160;51.172;6.808;2023-11-21T06:57:07;12.40;99.90
4293;DHT22;2160;51.172;6.808;2023-11-21T06:59:35;12.40;99.90
4293;DHT22;2160;51.172;6.808;2023-11-21T07:02:03;12.20;99.90
4293;DHT22;2160;51.172;6.808;2023-11-21T07:04:32;12.20;99.90
4293;DHT22;2160;51.172;6.808;2023-11-21T07:06:59;12.30;99.90
4293;DHT22;2160;51.172;6.808;2023-11-21T07:09:26;12.20;99.90
4293;DHT22;2160;51.172;6.808;2023-11-21T07:11:53;12.20;99.90
4293;DHT22;2160;51.172;6.808;2023-11-21T07:14:21;12.20;99.90
4293;DHT22;2160;51.172;6.808;2023-11-21T07:16:48;12.40;99.90
4293;DHT22;2160;51.172;6.808;2023-11-21T07:19:16;12.80;99.90
4293;DHT22;2160;51.172;6.808;2023-11-21T07:21:43;12.60;99.90
4293;DHT22;2160;51.172;6.808;2023-11-21T07:24:10;12.50;99.90
4293;DHT22;2160;51.172;6.808;2023-11-21T07:26:37;12.60;99.90
4293;DHT22;2160;51.172;6.808;2023-11-21T07:29:04;12.70;99.90
4293;DHT22;2160;51.172;6.808;2023-11-21T07:31:31;12.70;99.90
4293;DHT22;2160;51.172;6.808;2023-11-21T07:34:00;12.80;99.90
4293;DHT22;2160;51.172;6.808;2023-11-21T07:36:28;12.70;99.90
4293;DHT22;2160;51.172;6.808;2023-11-21T07:38:55;12.60;99.90
4293;DHT22;2160;51.172;6.808;2023-11-21T07:41:22;12.80;99.90
4293;DHT22;2160;51.172;6.808;2023-11-21T07:43:49;12.80;99.90
4293;DHT22;2160;51.172;6.808;2023-11-21T07:46:16;12.90;99.90
4293;DHT22;2160;51.172;6.808;2023-11-21T07:48:43;13.10;99.90
4293;DHT22;2160;51.172;6.808;2023-11-21T07:51:11;13.20;99.90
4293;DHT22;2160;51.172;6.808;2023-11-21T07:53:40;13.20;99.90
4293;DHT22;2160;51.172;6.808;2023-11-21T07:56:08;13.30;99.90
4293;DHT22;2160;51.172;6.808;2023-11-21T07:58:36;13.30;99.90
4293;DHT22;2160;51.172;6.808;2023-11-21T08:01:03;13.30;99.90
4293;DHT22;2160;51.172;6.808;2023-11-21T08:03:30;13.20;99.90
4293;DHT22;2160;51.172;6.808;2023-11-21T08:05:58;13.10;99.90
4293;DHT22;2160;51.172;6.808;2023-11-21T08:08:25;13.10;99.90
4293;DHT22;2160;51.172;6.808;2023-11-21T08:10:54;13.20;99.90
4293;DHT22;2160;51.172;6.808;2023-11-21T08:13:23;13.20;99.90
4293;DHT22;2160;51.172;6.808;2023-11-21T08:15:50;13.20;99.90
4293;DHT22;2160;51.172;6.808;2023-11-21T08:18:20;12.90;99.90
4293;DHT22;2160;51.172;6.808;2023-11-21T08:20:47;12.80;99.90
4293;DHT22;2160;51.172;6.808;2023-11-21T08:23:14;12.60;99.90
4293;DHT22;2160;51.172;6.808;2023-11-21T08:25:43;12.60;99.90
4293;DHT22;2160;51.172;6.808;2023-11-21T08:28:12;12.50;99.90
4293;DHT22;2160;51.172;6.808;2023-11-21T08:30:40;12.50;99.90
4293;DHT22;2160;51.172;6.808;2023-11-21T08:33:07;12.30;99.90
4293;DHT22;2160;51.172;6.808;2023-11-21T08:35:35;12.20;99.90
4293;DHT22;2160;51.172;6.808;2023-11-21T08:38:03;12.40;99.90
4293;DHT22;2160;51.172;6.808;2023-11-21T08:40:30;12.30;99.90
4293;DHT22;2160;51.172;6.808;2023-11-21T08:42:57;12.30;99.90
4293;DHT22;2160;51.172;6.808;2023-11-21T08:45:26;12.30;99.90
4293;DHT22;2160;51.172;6.808;2023-11-21T08:47:54;12.60;99.90
4293;DHT22;2160;51.172;6.808;2023-11-21T08:50:20;12.70;99.90
4293;DHT22;2160;51.172;6.808;2023-11-21T08:52:48;12.60;99.90
4293;DHT22;2160;51.172;6.808;2023-11-21T08:55:15;12.70;99.90
4293;DHT22;2160;51.172;6.808;2023-11-21T08:57:44;12.90;99.90
4293;DHT22;2160;51.172;6.808;2023-11-21T09:00:12;12.90;99.90
4293;DHT22;2160;51.172;6.808;2023-11-21T09:02:44;12.60;99.90
4293;DHT22;2160;51.172;6.808;2023-11-21T09:05:12;12.40;99.90
4293;DHT22;2160;51.172;6.808;2023-11-21T09:07:40;12.40;99.90
4293;DHT22;2160;51.172;6.808;2023-11-21T09:10:08;12.40;99.90
4293;DHT22;2160;51.172;6.808;2023-11-21T09:12:36;12.40;99.90
4293;DHT22;2160;51.172;6.808;2023-11-21T09:15:04;12.40;99.90
4293;DHT22;2160;51.172;6.808;2023-11-21T09:17:32;12.50;99.90
4293;DHT22;2160;51.172;6.808;2023-11-21T09:20:01;12.70;99.90
4293;DHT22;2160;51.172;6.808;2023-11-21T09:22:31;12.90;99.90
4293;DHT22;2160;51.172;6.808;2023-11-21T09:24:58;12.90;99.90
4293;DHT22;2160;51.172;6.808;2023-11-21T09:27:25;13.10;99.90
4293;DHT22;2160;51.172;6.808;2023-11-21T09:29:52;13.30;99.90
4293;DHT22;2160;51.172;6.808;2023-11-21T09:32:20;13.10;99.90
4293;DHT22;2160;51.172;6.808;2023-11-21T09:34:47;13.00;99.90
4293;DHT22;2160;51.172;6.808;2023-11-21T09:37:22;13.10;99.90
4293;DHT22;2160;51.172;6.808;2023-11-21T09:39:49;13.10;99.90
4293;DHT22;2160;51.172;6.808;2023-11-21T09:42:19;13.00;99.90
4293;DHT22;2160;51.172;6.808;2023-11-21T09:44:54;13.20;99.90
4293;DHT22;2160;51.172;6.808;2023-11-21T09:47:27;13.40;99.90
4293;DHT22;2160;51.172;6.808;2023-11-21T09:49:54;13.40;99.90
4293;DHT22;2160;51.172;6.808;2023-11-21T09:52:26;13.40;99.90
4293;DHT22;2160;51.172;6.808;2023-11-21T09:54:54;13.40;99.90
4293;DHT22;2160;51.172;6.808;2023-11-21T09:57:23;13.40;99.90
4293;DHT22;2160;51.172;6.808;2023-11-21T09:59:52;13.50;99.90
4293;DHT22;2160;51.172;6.808;2023-11-21T10:02:22;13.30;99.90
4293;DHT22;2160;51.172;6.808;2023-11-21T10:04:51;13.20;99.90
4293;DHT22;2160;51.172;6.808;2023-11-21T10:07:21;13.30;99.90
4293;DHT22;2160;51.172;6.808;2023-11-21T10:09:51;13.30;99.90
4293;DHT22;2160;51.172;6.808;2023-11-21T10:12:18;13.50;99.90
4293;DHT22;2160;51.172;6.808;2023-11-21T10:14:48;13.60;99.90
4293;DHT22;2160;51.172;6.808;2023-11-21T10:17:15;13.60;99.90
4293;DHT22;2160;51.172;6.808;2023-11-21T10:19:46;13.70;99.90
4293;DHT22;2160;51.172;6.808;2023-11-21T10:22:13;13.80;99.90
4293;DHT22;2160;51.172;6.808;2023-11-21T10:24:41;13.80;99.90
4293;DHT22;2160;51.172;6.808;2023-11-21T10:27:10;14.10;99.90
4293;DHT22;2160;51.172;6.808;2023-11-21T10:29:39;14.10;99.90
4293;DHT22;2160;51.172;6.808;2023-11-21T10:32:07;14.00;99.90
4293;DHT22;2160;51.172;6.808;2023-11-21T10:34:35;13.90;99.90
4293;DHT22;2160;51.172;6.808;2023-11-21T10:37:11;13.70;99.90
4293;DHT22;2160;51.172;6.808;2023-11-21T10:39:39;13.70;99.90
4293;DHT22;2160;51.172;6.808;2023-11-21T10:42:09;13.80;99.90
4293;DHT22;2160;51.172;6.808;2023-11-21T10:44:36;13.80;99.90
4293;DHT22;2160;51.172;6.808;2023-11-21T10:47:04;13.80;99.90
4293;DHT22;2160;51.172;6.808;2023-11-21T10:49:31;13.80;99.90
4293;DHT22;2160;51.172;6.808;2023-11-21T10:51:58;13.70;99.90
4293;DHT22;2160;51.172;6.808;2023-11-21T10:54:25;13.70;99.90
4293;DHT22;2160;51.172;6.808;2023-11-21T10:56:56;14.00;99.90
4293;DHT22;2160;51.172;6.808;2023-11-21T10:59:29;14.00;99.90
4293;DHT22;2160;51.172;6.808;2023-11-21T11:01:58;14.10;99.90
4293;DHT22;2160;51.172;6.808;2023-11-21T11:04:28;13.90;99.90
4293;DHT22;2160;51.172;6.808;2023-11-21T11:06:57;13.90;99.90
4293;DHT22;2160;51.172;6.808;2023-11-21T11:09:26;14.00;99.90
4293;DHT22;2160;51.172;6.808;2023-11-21T11:11:53;14.00;99.90
4293;DHT22;2160;51.172;6.808;2023-11-21T11:14:20;14.00;99.90
4293;DHT22;2160;51.172;6.808;2023-11-21T11:16:54;14.00;99.90
4293;DHT22;2160;51.172;6.808;2023-11-21T11:19:21;13.80;99.90
4293;DHT22;2160;51.172;6.808;2023-11-21T11:22:11;13.70;99.90
4293;DHT22;2160;51.172;6.808;2023-11-21T11:24:52;13.50;99.90
4293;DHT22;2160;51.172;6.808;2023-11-21T11:27:29;13.50;99.90
4293;DHT22;2160;51.172;6.808;2023-11-21T11:30:07;13.60;99.90
4293;DHT22;2160;51.172;6.808;2023-11-21T11:32:54;13.70;99.90
4293;DHT22;2160;51.172;6.808;2023-11-21T11:35:27;13.90;99.90
4293;DHT22;2160;51.172;6.808;2023-11-21T11:37:57;13.90;99.90
4293;DHT22;2160;51.172;6.808;2023-11-21T11:40:33;13.90;99.90
4293;DHT22;2160;51.172;6.808;2023-11-21T11:43:06;14.00;99.90
4293;DHT22;2160;51.172;6.808;2023-11-21T11:45:34;13.90;99.90
4293;DHT22;2160;51.172;6.808;2023-11-21T11:48:05;13.90;99.90
4293;DHT22;2160;51.172;6.808;2023-11-21T11:50:32;14.00;99.90
4293;DHT22;2160;51.172;6.808;2023-11-21T11:53:12;14.10;99.90
4293;DHT22;2160;51.172;6.808;2023-11-21T11:55:40;14.10;99.90
4293;DHT22;2160;51.172;6.808;2023-11-21T11:58:07;13.90;99.90
4293;DHT22;2160;51.172;6.808;2023-11-21T12:00:35;14.00;99.90
4293;DHT22;2160;51.172;6.808;2023-11-21T12:03:07;14.00;99.90
4293;DHT22;2160;51.172;6.808;2023-11-21T12:05:35;14.10;99.90
4293;DHT22;2160;51.172;6.808;2023-11-21T12:08:05;14.30;99.90
4293;DHT22;2160;51.172;6.808;2023-11-21T12:10:35;14.30;99.90
4293;DHT22;2160;51.172;6.808;2023-11-21T12:13:05;14.50;99.90
4293;DHT22;2160;51.172;6.808;2023-11-21T12:15:33;14.60;99.90
4293;DHT22;2160;51.172;6.808;2023-11-21T12:18:01;14.80;99.90
4293;DHT22;2160;51.172;6.808;2023-11-21T12:20:30;15.10;99.90
4293;DHT22;2160;51.172;6.808;2023-11-21T12:22:58;15.30;99.90
4293;DHT22;2160;51.172;6.808;2023-11-21T12:25:26;15.30;99.90
4293;DHT22;2160;51.172;6.808;2023-11-21T12:27:55;15.40;99.90
4293;DHT22;2160;51.172;6.808;2023-11-21T12:30:23;15.60;99.90
4293;DHT22;2160;51.172;6.808;2023-11-21T12:32:54;15.50;99.90
4293;DHT22;2160;51.172;6.808;2023-11-21T12:35:23;15.60;99.90
4293;DHT22;2160;51.172;6.808;2023-11-21T12:37:52;15.60;99.90
4293;DHT22;2160;51.172;6.808;2023-11-21T12:40:20;15.80;99.90
4293;DHT22;2160;51.172;6.808;2023-11-21T12:42:50;15.70;99.90
4293;DHT22;2160;51.172;6.808;2023-11-21T12:45:20;15.60;99.90
4293;DHT22;2160;51.172;6.808;2023-11-21T12:47:48;15.70;99.90
4293;DHT22;2160;51.172;6.808;2023-11-21T12:50:19;15.70;99.90
4293;DHT22;2160;51.172;6.808;2023-11-21T12:52:50;15.60;99.90
4293;DHT22;2160;51.172;6.808;2023-11-21T12:55:21;15.40;99.90
4293;DHT22;2160;51.172;6.808;2023-11-21T12:57:49;15.70;99.90
4293;DHT22;2160;51.172;6.808;2023-11-21T13:00:18;15.60;99.90
4293;DHT22;2160;51.172;6.808;2023-11-21T13:02:54;15.70;99.90
4293;DHT22;2160;51.172;6.808;2023-11-21T13:05:27;15.60;99.90
4293;DHT22;2160;51.172;6.808;2023-11-21T13:07:58;15.40;99.90
4293;DHT22;2160;51.172;6.808;2023-11-21T13:10:27;15.20;99.90
4293;DHT22;2160;51.172;6.808;2023-11-21T13:12:57;14.70;99.90
4293;DHT22;2160;51.172;6.808;2023-11-21T13:15:26;14.50;99.90
4293;DHT22;2160;51.172;6.808;2023-11-21T13:17:54;14.60;99.90
4293;DHT22;2160;51.172;6.808;2023-11-21T13:20:22;14.60;99.90
4293;DHT22;2160;51.172;6.808;2023-11-21T13:22:51;14.50;99.90
4293;DHT22;2160;51.172;6.808;2023-11-21T13:25:20;14.40;99.90
4293;DHT22;2160;51.172;6.808;2023-11-21T13:27:49;14.50;99.90
4293;DHT22;2160;51.172;6.808;2023-11-21T13:30:16;14.50;99.90
4293;DHT22;2160;51.172;6.808;2023-11-21T13:32:45;14.60;99.90
4293;DHT22;2160;51.172;6.808;2023-11-21T13:35:12;14.70;99.90
4293;DHT22;2160;51.172;6.808;2023-11-21T13:37:52;14.60;99.90
4293;DHT22;2160;51.172;6.808;2023-11-21T13:40:22;14.70;99.90
4293;DHT22;2160;51.172;6.808;2023-11-21T13:42:53;14.70;99.90
4293;DHT22;2160;51.172;6.808;2023-11-21T13:45:21;14.80;99.90
4293;DHT22;2160;51.172;6.808;2023-11-21T13:47:50;14.90;99.90
4293;DHT22;2160;51.172;6.808;2023-11-21T13:50:24;14.80;99.90
4293;DHT22;2160;51.172;6.808;2023-11-21T13:52:56;14.90;99.90
4293;DHT22;2160;51.172;6.808;2023-11-21T13:55:23;14.90;99.90
4293;DHT22;2160;51.172;6.808;2023-11-21T13:57:52;14.90;99.90
4293;DHT22;2160;51.172;6.808;2023-11-21T14:00:19;14.90;99.90
4293;DHT22;2160;51.172;6.808;2023-11-21T14:03:03;15.00;99.90
4293;DHT22;2160;51.172;6.808;2023-11-21T14:05:34;15.10;99.90
4293;DHT22;2160;51.172;6.808;2023-11-21T14:08:01;15.10;99.90
4293;DHT22;2160;51.172;6.808;2023-11-21T14:10:31;15.10;99.90
4293;DHT22;2160;51.172;6.808;2023-11-21T14:13:07;15.00;99.90
4293;DHT22;2160;51.172;6.808;2023-11-21T14:15:36;15.00;99.90
4293;DHT22;2160;51.172;6.808;2023-11-21T14:18:07;15.00;99.90
4293;DHT22;2160;51.172;6.808;2023-11-21T14:20:36;14.60;99.90
4293;DHT22;2160;51.172;6.808;2023-11-21T14:23:03;14.60;99.90
4293;DHT22;2160;51.172;6.808;2023-11-21T14:25:32;14.60;99.90
4293;DHT22;2160;51.172;6.808;2023-11-21T14:28:00;14.70;99.90
4293;DHT22;2160;51.172;6.808;2023-11-21T14:30:28;14.50;99.90
4293;DHT22;2160;51.172;6.808;2023-11-21T14:32:57;14.30;99.90
4293;DHT22;2160;51.172;6.808;2023-11-21T14:35:25;14.10;99.90
4293;DHT22;2160;51.172;6.808;2023-11-21T14:37:52;14.10;99.90
4293;DHT22;2160;51.172;6.808;2023-11-21T14:40:19;14.20;99.90
4293;DHT22;2160;51.172;6.808;2023-11-21T14:42:50;14.30;99.90
4293;DHT22;2160;51.172;6.808;2023-11-21T14:45:19;14.20;99.90
4293;DHT22;2160;51.172;6.808;2023-11-21T14:47:47;14.30;99.90
4293;DHT22;2160;51.172;6.808;2023-11-21T14:50:22;14.30;99.90
4293;DHT22;2160;51.172;6.808;2023-11-21T14:53:35;14.20;99.90
4293;DHT22;2160;51.172;6.808;2023-11-21T14:56:09;14.10;99.90
4293;DHT22;2160;51.172;6.808;2023-11-21T14:58:37;14.10;99.90
4293;DHT22;2160;51.172;6.808;2023-11-21T15:01:04;14.00;99.90
4293;DHT22;2160;51.172;6.808;2023-11-21T15:03:36;14.10;99.90
4293;DHT22;2160;51.172;6.808;2023-11-21T15:06:15;14.10;99.90
4293;DHT22;2160;51.172;6.808;2023-11-21T15:08:58;14.10;99.90
4293;DHT22;2160;51.172;6.808;2023-11-21T15:11:39;13.80;99.90
4293;DHT22;2160;51.172;6.808;2023-11-21T15:14:07;13.80;99.90
4293;DHT22;2160;51.172;6.808;2023-11-21T15:16:35;13.80;99.90
4293;DHT22;2160;51.172;6.808;2023-11-21T15:19:07;13.90;99.90
4293;DHT22;2160;51.172;6.808;2023-11-21T15:21:35;13.90;99.90
4293;DHT22;2160;51.172;6.808;2023-11-21T15:24:03;13.90;99.90
4293;DHT22;2160;51.172;6.808;2023-11-21T15:26:32;14.00;99.90
4293;DHT22;2160;51.172;6.808;2023-11-21T15:28:59;14.00;99.90
4293;DHT22;2160;51.172;6.808;2023-11-21T15:31:26;13.80;99.90
4293;DHT22;2160;51.172;6.808;2023-11-21T15:33:53;13.80;99.90
4293;DHT22;2160;51.172;6.808;2023-11-21T15:36:26;13.90;99.90
4293;DHT22;2160;51.172;6.808;2023-11-21T15:38:53;13.60;99.90
4293;DHT22;2160;51.172;6.808;2023-11-21T15:41:20;13.70;99.90
4293;DHT22;2160;51.172;6.808;2023-11-21T15:43:47;13.60;99.90
4293;DHT22;2160;51.172;6.808;2023-11-21T15:46:23;13.50;99.90
4293;DHT22;2160;51.172;6.808;2023-11-21T15:48:50;13.50;99.90
4293;DHT22;2160;51.172;6.808;2023-11-21T15:51:20;13.40;99.90
4293;DHT22;2160;51.172;6.808;2023-11-21T15:53:47;13.50;99.90
4293;DHT22;2160;51.172;6.808;2023-11-21T15:56:14;13.60;99.90
4293;DHT22;2160;51.172;6.808;2023-11-21T15:58:43;13.60;99.90
4293;DHT22;2160;51.172;6.808;2023-11-21T16:01:11;13.30;99.90
4293;DHT22;2160;51.172;6.808;2023-11-21T16:03:40;13.30;99.90
4293;DHT22;2160;51.172;6.808;2023-11-21T16:06:12;13.30;99.90
4293;DHT22;2160;51.172;6.808;2023-11-21T16:08:39;13.30;99.90
4293;DHT22;2160;51.172;6.808;2023-11-21T16:11:07;13.40;99.90
4293;DHT22;2160;51.172;6.808;2023-11-21T16:13:34;13.30;99.90
4293;DHT22;2160;51.172;6.808;2023-11-21T16:16:01;13.20;99.90
4293;DHT22;2160;51.172;6.808;2023-11-21T16:18:29;13.20;99.90
4293;DHT22;2160;51.172;6.808;2023-11-21T16:20:57;13.00;99.90
4293;DHT22;2160;51.172;6.808;2023-11-21T16:23:25;13.00;99.90
4293;DHT22;2160;51.172;6.808;2023-11-21T16:25:52;13.00;99.90
4293;DHT22;2160;51.172;6.808;2023-11-21T16:28:22;12.80;99.90
4293;DHT22;2160;51.172;6.808;2023-11-21T16:30:50;12.70;99.90
4293;DHT22;2160;51.172;6.808;2023-11-21T16:33:17;12.80;99.90
4293;DHT22;2160;51.172;6.808;2023-11-21T16:35:45;12.90;99.90
4293;DHT22;2160;51.172;6.808;2023-11-21T16:38:14;13.10;99.90
4293;DHT22;2160;51.172;6.808;2023-11-21T16:40:42;13.00;99.90
4293;DHT22;2160;51.172;6.808;2023-11-21T16:43:11;12.90;99.90
4293;DHT22;2160;51.172;6.808;2023-11-21T16:45:38;13.00;99.90
4293;DHT22;2160;51.172;6.808;2023-11-21T16:48:05;12.90;99.90
4293;DHT22;2160;51.172;6.808;2023-11-21T16:50:33;12.80;99.90
4293;DHT22;2160;51.172;6.808;2023-11-21T16:53:00;12.80;99.90
4293;DHT22;2160;51.172;6.808;2023-11-21T16:55:29;12.90;99.90
4293;DHT22;2160;51.172;6.808;2023-11-21T16:57:56;12.60;99.90
4293;DHT22;2160;51.172;6.808;2023-11-21T17:00:23;12.50;99.90
4293;DHT22;2160;51.172;6.808;2023-11-21T17:02:50;12.50;99.90
4293;DHT22;2160;51.172;6.808;2023-11-21T17:05:17;12.30;99.90
4293;DHT22;2160;51.172;6.808;2023-11-21T17:07:45;12.40;99.90
4293;DHT22;2160;51.172;6.808;2023-11-21T17:10:13;12.30;99.90
4293;DHT22;2160;51.172;6.808;2023-11-21T17:12:41;12.30;99.90
4293;DHT22;2160;51.172;6.808;2023-11-21T17:15:09;12.30;99.90
4293;DHT22;2160;51.172;6.808;2023-11-21T17:17:36;12.30;99.90
4293;DHT22;2160;51.172;6.808;2023-11-21T17:20:05;12.30;99.90
4293;DHT22;2160;51.172;6.808;2023-11-21T17:22:36;12.30;99.90
4293;DHT22;2160;51.172;6.808;2023-11-21T17:25:03;12.30;99.90
4293;DHT22;2160;51.172;6.808;2023-11-21T17:27:30;12.20;99.90
4293;DHT22;2160;51.172;6.808;2023-11-21T17:29:58;12.40;99.90
4293;DHT22;2160;51.172;6.808;2023-11-21T17:32:25;12.30;99.90
4293;DHT22;2160;51.172;6.808;2023-11-21T17:34:54;12.10;99.90
4293;DHT22;2160;51.172;6.808;2023-11-21T17:37:22;12.00;99.90
4293;DHT22;2160;51.172;6.808;2023-11-21T17:39:49;12.00;99.90
4293;DHT22;2160;51.172;6.808;2023-11-21T17:42:16;11.60;99.90
4293;DHT22;2160;51.172;6.808;2023-11-21T17:44:43;11.70;99.90
4293;DHT22;2160;51.172;6.808;2023-11-21T17:47:12;11.90;99.90
4293;DHT22;2160;51.172;6.808;2023-11-21T17:49:39;11.90;99.90
4293;DHT22;2160;51.172;6.808;2023-11-21T17:52:06;12.00;99.90
4293;DHT22;2160;51.172;6.808;2023-11-21T17:54:33;12.10;99.90
4293;DHT22;2160;51.172;6.808;2023-11-21T17:57:05;12.20;99.90
4293;DHT22;2160;51.172;6.808;2023-11-21T17:59:33;12.20;99.90
4293;DHT22;2160;51.172;6.808;2023-11-21T18:02:01;12.00;99.90
4293;DHT22;2160;51.172;6.808;2023-11-21T18:04:29;11.90;99.90
4293;DHT22;2160;51.172;6.808;2023-11-21T18:06:56;11.80;99.90
4293;DHT22;2160;51.172;6.808;2023-11-21T18:09:24;11.70;99.90
4293;DHT22;2160;51.172;6.808;2023-11-21T18:11:51;11.50;99.90
4293;DHT22;2160;51.172;6.808;2023-11-21T18:14:18;11.60;99.90
4293;DHT22;2160;51.172;6.808;2023-11-21T18:16:45;11.70;99.90
4293;DHT22;2160;51.172;6.808;2023-11-21T18:19:12;11.70;99.90
4293;DHT22;2160;51.172;6.808;2023-11-21T18:21:41;11.70;99.90
4293;DHT22;2160;51.172;6.808;2023-11-21T18:24:09;11.60;99.90
4293;DHT22;2160;51.172;6.808;2023-11-21T18:26:36;11.60;99.90
4293;DHT22;2160;51.172;6.808;2023-11-21T18:29:04;11.50;99.90
4293;DHT22;2160;51.172;6.808;2023-11-21T18:31:31;11.50;99.90
4293;DHT22;2160;51.172;6.808;2023-11-21T18:33:58;11.50;99.90
4293;DHT22;2160;51.172;6.808;2023-11-21T18:36:25;11.40;99.90
4293;DHT22;2160;51.172;6.808;2023-11-21T18:38:53;11.50;99.90
4293;DHT22;2160;51.172;6.808;2023-11-21T18:41:20;11.50;99.90
4293;DHT22;2160;51.172;6.808;2023-11-21T18:43:48;11.50;99.90
4293;DHT22;2160;51.172;6.808;2023-11-21T18:46:15;11.40;99.90
4293;DHT22;2160;51.172;6.808;2023-11-21T18:48:41;11.30;99.90
4293;DHT22;2160;51.172;6.808;2023-11-21T18:51:08;11.20;99.90
4293;DHT22;2160;51.172;6.808;2023-11-21T18:53:35;11.30;99.90
4293;DHT22;2160;51.172;6.808;2023-11-21T18:56:05;11.40;99.90
4293;DHT22;2160;51.172;6.808;2023-11-21T18:58:34;11.20;99.90
4293;DHT22;2160;51.172;6.808;2023-11-21T19:01:01;11.20;99.90
4293;DHT22;2160;51.172;6.808;2023-11-21T19:03:29;11.10;99.90
4293;DHT22;2160;51.172;6.808;2023-11-21T19:05:57;11.20;99.90
4293;DHT22;2160;51.172;6.808;2023-11-21T19:08:25;11.10;99.90
4293;DHT22;2160;51.172;6.808;2023-11-21T19:10:52;11.10;99.90
4293;DHT22;2160;51.172;6.808;2023-11-21T19:13:21;11.20;99.90
4293;DHT22;2160;51.172;6.808;2023-11-21T19:15:50;11.20;99.90
4293;DHT22;2160;51.172;6.808;2023-11-21T19:18:16;11.20;99.90
4293;DHT22;2160;51.172;6.808;2023-11-21T19:20:44;11.10;99.90
4293;DHT22;2160;51.172;6.808;2023-11-21T19:23:11;11.00;99.90
4293;DHT22;2160;51.172;6.808;2023-11-21T19:25:38;11.00;99.90
4293;DHT22;2160;51.172;6.808;2023-11-21T19:28:05;10.90;99.90
4293;DHT22;2160;51.172;6.808;2023-11-21T19:30:33;10.80;99.90
4293;DHT22;2160;51.172;6.808;2023-11-21T19:33:04;10.90;99.90
4293;DHT22;2160;51.172;6.808;2023-11-21T19:35:31;11.00;99.90
4293;DHT22;2160;51.172;6.808;2023-11-21T19:38:01;11.00;99.90
4293;DHT22;2160;51.172;6.808;2023-11-21T19:40:28;11.10;99.90
4293;DHT22;2160;51.172;6.808;2023-11-21T19:42:55;11.30;99.90
4293;DHT22;2160;51.172;6.808;2023-11-21T19:45:22;11.30;99.90
4293;DHT22;2160;51.172;6.808;2023-11-21T19:47:52;11.10;99.90
4293;DHT22;2160;51.172;6.808;2023-11-21T19:50:19;11.10;99.90
4293;DHT22;2160;51.172;6.808;2023-11-21T19:52:46;11.10;99.90
4293;DHT22;2160;51.172;6.808;2023-11-21T19:55:13;10.80;99.90
4293;DHT22;2160;51.172;6.808;2023-11-21T19:57:41;10.80;99.90
4293;DHT22;2160;51.172;6.808;2023-11-21T20:00:09;10.80;99.90
4293;DHT22;2160;51.172;6.808;2023-11-21T20:02:38;10.90;99.90
4293;DHT22;2160;51.172;6.808;2023-11-21T20:05:08;10.60;99.90
4293;DHT22;2160;51.172;6.808;2023-11-21T20:07:35;10.70;99.90
4293;DHT22;2160;51.172;6.808;2023-11-21T20:10:02;10.70;99.90
4293;DHT22;2160;51.172;6.808;2023-11-21T20:12:29;10.80;99.90
4293;DHT22;2160;51.172;6.808;2023-11-21T20:14:56;10.80;99.90
4293;DHT22;2160;51.172;6.808;2023-11-21T20:17:24;10.60;99.90
4293;DHT22;2160;51.172;6.808;2023-11-21T20:19:53;10.70;99.90
4293;DHT22;2160;51.172;6.808;2023-11-21T20:22:21;10.80;99.90
4293;DHT22;2160;51.172;6.808;2023-11-21T20:24:48;10.80;99.90
4293;DHT22;2160;51.172;6.808;2023-11-21T20:27:16;10.70;99.90
4293;DHT22;2160;51.172;6.808;2023-11-21T20:29:43;10.60;99.90
4293;DHT22;2160;51.172;6.808;2023-11-21T20:32:10;10.70;99.90
4293;DHT22;2160;51.172;6.808;2023-11-21T20:34:37;10.80;99.90
4293;DHT22;2160;51.172;6.808;2023-11-21T20:37:05;10.80;99.90
4293;DHT22;2160;51.172;6.808;2023-11-21T20:39:33;10.70;99.90
4293;DHT22;2160;51.172;6.808;2023-11-21T20:42:02;10.60;99.90
4293;DHT22;2160;51.172;6.808;2023-11-21T20:44:29;10.60;99.90
4293;DHT22;2160;51.172;6.808;2023-11-21T20:46:56;10.60;99.90
4293;DHT22;2160;51.172;6.808;2023-11-21T20:49:23;10.50;99.90
4293;DHT22;2160;51.172;6.808;2023-11-21T20:51:50;10.50;99.90
4293;DHT22;2160;51.172;6.808;2023-11-21T20:54:17;10.40;99.90
4293;DHT22;2160;51.172;6.808;2023-11-21T20:56:45;10.40;99.90
4293;DHT22;2160;51.172;6.808;2023-11-21T20:59:13;10.40;99.90
4293;DHT22;2160;51.172;6.808;2023-11-21T21:01:40;10.40;99.90
4293;DHT22;2160;51.172;6.808;2023-11-21T21:04:08;10.40;99.90
4293;DHT22;2160;51.172;6.808;2023-11-21T21:06:37;10.50;99.90
4293;DHT22;2160;51.172;6.808;2023-11-21T21:09:05;10.50;99.90
4293;DHT22;2160;51.172;6.808;2023-11-21T21:11:35;10.60;99.90